Madeline — WDE3220 — position and weather

sailwx.info

Track history (hours):
 
Tides and Currents Weather Stations Pressure Air Temp Water Temp Dewpoint Dewpoint Depression Visibility Wind Speed Wind Dir Waves Ship Positions

Madeline

Owner: TUG MADELINE, LLC, NEW CASTLE, DE. More information available from US FCC via Universal Licensing System and Coast Guard Vessel Documentation Center.

Last reported at 2018-Feb-18 18:30 UTC. Time now 2018-Feb-18 18:39 UTC.
Position N 39°43' W 075°31'.

Length 23 m; draft 4.6 m.

Type: Tug. MMSI: 367335830.

Date/timePositionNaut miles runAvg speedWind from/ knotsBaromVisibWave heightAir tempDewpointWater temp
2018-Feb-18 18:30N 39°43' W 075°31'0 0.0
2018-Feb-18 18:00N 39°43' W 075°31'0 0.0
2018-Feb-18 17:30N 39°43' W 075°31'0 0.0
2018-Feb-18 17:00N 39°43' W 075°31'0 0.0
2018-Feb-18 16:30N 39°43' W 075°31'0 0.0
2018-Feb-18 16:00N 39°43' W 075°31'0 0.0
2018-Feb-18 15:30N 39°43' W 075°31'0 0.0
2018-Feb-18 15:00N 39°43' W 075°31'0 0.0
2018-Feb-18 14:31N 39°43' W 075°31'0 0.0
2018-Feb-18 14:00N 39°43' W 075°31'0 0.0
2018-Feb-18 13:30N 39°43' W 075°31'0 0.0
2018-Feb-18 13:00N 39°43' W 075°31'0 0.0
2018-Feb-18 12:30N 39°43' W 075°31'0 0.0
2018-Feb-18 12:00N 39°43' W 075°31'0 0.0
2018-Feb-18 11:30N 39°43' W 075°31'0 0.0
2018-Feb-18 11:00N 39°43' W 075°31'0 0.0
2018-Feb-18 10:30N 39°43' W 075°31'0 0.0
2018-Feb-18 10:00N 39°43' W 075°31'0 0.0
2018-Feb-18 09:30N 39°43' W 075°31'0 0.0
2018-Feb-18 09:00N 39°43' W 075°31'0 0.0
2018-Feb-18 08:30N 39°43' W 075°31'0 0.0
2018-Feb-18 08:00N 39°43' W 075°31'0 0.0
2018-Feb-18 07:30N 39°43' W 075°31'0 0.4
2018-Feb-18 07:00N 39°43' W 075°31'611.2
2018-Feb-18 06:31N 39°38' W 075°35'3 6.6
2018-Feb-18 06:00N 39°35' W 075°35'0 0.1
2018-Feb-18 05:30N 39°35' W 075°35'0 0.2
2018-Feb-18 05:00N 39°35' W 075°35'0 0.0
2018-Feb-18 04:30N 39°35' W 075°35'0 0.0
2018-Feb-18 04:00N 39°35' W 075°35'0 0.0
2018-Feb-18 03:30N 39°35' W 075°35'0 0.0
2018-Feb-18 03:00N 39°35' W 075°35'0 0.0
2018-Feb-18 02:30N 39°35' W 075°35'0 0.0
2018-Feb-18 02:00N 39°35' W 075°35'3 5.8
2018-Feb-18 01:30N 39°33' W 075°33'510.9
2018-Feb-18 01:00N 39°27' W 075°33'611.2
2018-Feb-18 00:31N 39°23' W 075°29'611.1
2018-Feb-18 00:00N 39°19' W 075°24'1010.4
2018-Feb-17 23:00N 39°11' W 075°16'611.4
2018-Feb-17 22:30N 39°06' W 075°12'11 0.4
2018-Feb-16 18:54N 39°15' W 075°19'513.3
2018-Feb-16 18:30N 39°19' W 075°24'612.6
2018-Feb-16 18:00N 39°24' W 075°29'611.2
2018-Feb-16 17:30N 39°28' W 075°34'510.4
2018-Feb-16 17:00N 39°33' W 075°33'5 9.6
2018-Feb-16 16:31N 39°38' W 075°34'510.1
2018-Feb-16 16:00N 39°42' W 075°31'1 1.8
2018-Feb-16 15:30N 39°43' W 075°31'0 0.0
2018-Feb-16 15:00N 39°43' W 075°31'0 0.0
2018-Feb-16 14:30N 39°43' W 075°31'0 0.0
2018-Feb-16 14:01N 39°43' W 075°31'0 0.0
2018-Feb-16 13:31N 39°43' W 075°31'0 0.0
2018-Feb-16 13:01N 39°43' W 075°31'0 0.0
2018-Feb-16 12:30N 39°43' W 075°31'0 0.0
2018-Feb-16 12:00N 39°43' W 075°31'0 0.0
2018-Feb-16 11:30N 39°43' W 075°31'0 0.0
2018-Feb-16 11:00N 39°43' W 075°31'0 0.0
2018-Feb-16 10:30N 39°43' W 075°31'0 0.0
2018-Feb-16 10:00N 39°43' W 075°31'0 0.0
2018-Feb-16 09:30N 39°43' W 075°31'0 0.0
2018-Feb-16 09:00N 39°43' W 075°31'0 0.0
2018-Feb-16 08:31N 39°43' W 075°31'510.2
2018-Feb-16 08:01N 39°47' W 075°27'3 5.6
2018-Feb-16 07:31N 39°49' W 075°24'4 7.2
2018-Feb-16 07:01N 39°51' W 075°21'0 0.2
2018-Feb-16 06:30N 39°51' W 075°20'0 0.3
2018-Feb-16 06:01N 39°51' W 075°20'2 3.8
2018-Feb-16 05:31N 39°50' W 075°22'2 3.2
2018-Feb-16 05:01N 39°51' W 075°21'1 2.2
2018-Feb-16 04:31N 39°51' W 075°19'4 8.7
2018-Feb-16 04:01N 39°52' W 075°14'2 4.9
2018-Feb-16 03:30N 39°53' W 075°11'0 0.0
2018-Feb-16 03:00N 39°53' W 075°11'0 0.0
2018-Feb-16 02:31N 39°53' W 075°11'0 0.0
2018-Feb-16 02:01N 39°53' W 075°11'0 0.0
2018-Feb-16 01:31N 39°53' W 075°11'0 0.0
2018-Feb-15 23:06N 39°53' W 075°11'0 0.1
2018-Feb-15 23:00N 39°53' W 075°11'0 0.0
2018-Feb-15 22:30N 39°53' W 075°11'0 0.0
2018-Feb-15 22:00N 39°53' W 075°11'0 0.0
2018-Feb-15 21:30N 39°53' W 075°11'0 0.0
2018-Feb-15 21:01N 39°53' W 075°11'0 0.0
2018-Feb-15 20:31N 39°53' W 075°11'0 0.0
2018-Feb-15 20:01N 39°53' W 075°11'0 0.0
2018-Feb-15 19:30N 39°53' W 075°11'0 0.0
2018-Feb-15 19:01N 39°53' W 075°11'0 0.0
2018-Feb-15 18:30N 39°53' W 075°11'0 0.0
2018-Feb-15 18:01N 39°53' W 075°11'0 0.0
2018-Feb-15 17:31N 39°53' W 075°11'0 0.0
2018-Feb-15 17:00N 39°53' W 075°11'0 0.0
2018-Feb-15 16:30N 39°53' W 075°11'0 0.0
2018-Feb-15 16:00N 39°53' W 075°11'0 0.0
2018-Feb-15 15:30N 39°53' W 075°11'0 0.0
2018-Feb-15 15:00N 39°53' W 075°11'0 0.0
2018-Feb-15 14:30N 39°53' W 075°11'0 0.0
2018-Feb-15 14:01N 39°53' W 075°11'0 0.0
2018-Feb-15 13:30N 39°53' W 075°11'0 0.0
2018-Feb-15 13:00N 39°53' W 075°11'0 0.0
2018-Feb-15 12:30N 39°53' W 075°11'0 0.0
2018-Feb-15 12:00N 39°53' W 075°11'0 0.0
2018-Feb-15 11:30N 39°53' W 075°11'0 0.0
2018-Feb-15 11:00N 39°53' W 075°11'3 6.8
2018-Feb-15 10:30N 39°56' W 075°08'510.1
2018-Feb-15 10:00N 39°60' W 075°04'613.1
2018-Feb-15 09:31N 40°04' W 074°57'612.4
2018-Feb-15 09:00N 40°07' W 074°50'1 2.6
2018-Feb-15 08:30N 40°08' W 074°49'0 0.0
2018-Feb-15 08:00N 40°08' W 074°49'1 1.2
2018-Feb-15 07:28N 40°07' W 074°50'3 6.5
2018-Feb-15 07:00N 40°05' W 074°52'4 8.6
2018-Feb-15 06:30N 40°03' W 074°57'4 8.6
2018-Feb-15 06:01N 40°01' W 075°02'4 7.1
2018-Feb-15 05:30N 39°59' W 075°05'3 6.6
2018-Feb-15 05:00N 39°56' W 075°08'3 6.2
2018-Feb-15 04:30N 39°53' W 075°09'2 3.6
2018-Feb-15 04:00N 39°53' W 075°11'0 0.0
2018-Feb-15 03:31N 39°53' W 075°11'0 0.0
2018-Feb-15 03:00N 39°53' W 075°11'0 0.0
2018-Feb-15 02:30N 39°53' W 075°11'3 6.5
2018-Feb-15 02:00N 39°51' W 075°15'1 2.6
2018-Feb-15 01:31N 39°51' W 075°16'0 0.7
2018-Feb-15 01:01N 39°51' W 075°16'0 0.0
2018-Feb-15 00:29N 39°51' W 075°16'0 0.0
2018-Feb-15 00:01N 39°51' W 075°16'0 0.0
2018-Feb-14 23:30N 39°51' W 075°16'0 0.0
2018-Feb-14 23:00N 39°51' W 075°16'0 0.0
2018-Feb-14 22:30N 39°51' W 075°16'0 0.0
2018-Feb-14 22:00N 39°51' W 075°16'0 0.0
2018-Feb-14 21:30N 39°51' W 075°16'0 0.0
2018-Feb-14 21:01N 39°51' W 075°16'0 0.0
2018-Feb-14 20:30N 39°51' W 075°16'0 0.0
2018-Feb-14 20:00N 39°51' W 075°16'0 0.9
2018-Feb-14 19:30N 39°51' W 075°15'4 7.8
2018-Feb-14 19:00N 39°51' W 075°20'4 8.3
2018-Feb-14 18:30N 39°48' W 075°25'1 2.0
2018-Feb-14 18:00N 39°48' W 075°26'0 0.1
2018-Feb-14 17:30N 39°48' W 075°26'1 3.0
2018-Feb-14 17:01N 39°49' W 075°24'0 0.5
2018-Feb-14 16:30N 39°49' W 075°24'3 6.7
2018-Feb-14 16:01N 39°51' W 075°20'4 8.2
2018-Feb-14 15:31N 39°51' W 075°15'4 7.2
2018-Feb-14 15:01N 39°53' W 075°11'0 0.1
2018-Feb-14 14:30N 39°53' W 075°11'0 0.0
2018-Feb-14 14:01N 39°53' W 075°11'0 0.0
2018-Feb-14 13:31N 39°53' W 075°11'0 0.0
2018-Feb-14 13:01N 39°53' W 075°11'0 0.0
2018-Feb-14 12:30N 39°53' W 075°11'0 0.0
2018-Feb-14 12:01N 39°53' W 075°11'0 0.0
2018-Feb-14 11:30N 39°53' W 075°11'0 0.0
2018-Feb-14 11:01N 39°53' W 075°11'0 0.0
2018-Feb-14 10:31N 39°53' W 075°11'0 0.0
2018-Feb-14 10:01N 39°53' W 075°11'0 0.0
2018-Feb-14 09:31N 39°53' W 075°11'0 0.0
2018-Feb-14 09:01N 39°53' W 075°11'0 0.0
2018-Feb-14 08:31N 39°53' W 075°11'0 0.0
2018-Feb-14 07:59N 39°53' W 075°11'0 0.0
2018-Feb-14 07:30N 39°53' W 075°11'0 0.0
2018-Feb-14 07:00N 39°53' W 075°11'0 0.0
2018-Feb-14 06:30N 39°53' W 075°11'0 0.0
2018-Feb-14 06:00N 39°53' W 075°11'0 0.0
2018-Feb-14 05:30N 39°53' W 075°11'0 0.0
2018-Feb-14 05:00N 39°53' W 075°11'0 0.0
2018-Feb-14 04:30N 39°53' W 075°11'0 0.0
2018-Feb-14 04:00N 39°53' W 075°11'0 0.0
2018-Feb-14 03:30N 39°53' W 075°11'0 0.0
2018-Feb-14 03:00N 39°53' W 075°11'0 0.0
2018-Feb-14 02:30N 39°53' W 075°11'0 0.0
2018-Feb-14 02:00N 39°53' W 075°11'0 0.0
2018-Feb-14 01:30N 39°53' W 075°11'0 0.0
2018-Feb-14 01:00N 39°53' W 075°11'0 0.0
2018-Feb-14 00:30N 39°53' W 075°11'0 0.0
2018-Feb-14 00:00N 39°53' W 075°11'0 0.0
2018-Feb-13 23:30N 39°53' W 075°11'0 0.0
2018-Feb-13 23:00N 39°53' W 075°11'0 0.0
2018-Feb-13 22:30N 39°53' W 075°11'0 0.0
2018-Feb-13 22:00N 39°53' W 075°11'0 0.0
2018-Feb-13 21:30N 39°53' W 075°11'0 0.0
2018-Feb-13 21:00N 39°53' W 075°11'0 0.0
2018-Feb-13 20:30N 39°53' W 075°11'0 0.0
2018-Feb-13 20:00N 39°53' W 075°11'0 0.0
2018-Feb-13 19:30N 39°53' W 075°11'0 0.0
2018-Feb-13 19:00N 39°53' W 075°11'0 0.0
2018-Feb-13 18:31N 39°53' W 075°11'0 0.0
2018-Feb-13 18:00N 39°53' W 075°11'0 0.0
2018-Feb-13 17:31N 39°53' W 075°11'0 0.0
2018-Feb-13 17:00N 39°53' W 075°11'0 0.0
2018-Feb-13 16:30N 39°53' W 075°11'0 0.0
2018-Feb-13 16:01N 39°53' W 075°11'0 0.0
2018-Feb-13 15:31N 39°53' W 075°11'0 0.0
2018-Feb-13 15:01N 39°53' W 075°11'0 0.0
2018-Feb-13 14:31N 39°53' W 075°11'0 0.0
2018-Feb-13 14:01N 39°53' W 075°11'0 0.0
2018-Feb-13 13:31N 39°53' W 075°11'0 0.0
2018-Feb-13 13:00N 39°53' W 075°11'0 0.0
2018-Feb-13 12:30N 39°53' W 075°11'0 0.0
2018-Feb-13 12:01N 39°53' W 075°11'0 0.0
2018-Feb-13 11:30N 39°53' W 075°11'0 0.0
2018-Feb-13 11:00N 39°53' W 075°11'0 0.0
2018-Feb-13 10:30N 39°53' W 075°11'0 0.0
2018-Feb-13 10:00N 39°53' W 075°11'0 0.0
2018-Feb-13 09:30N 39°53' W 075°11'0 0.0
2018-Feb-13 09:00N 39°53' W 075°11'1 2.7
2018-Feb-13 08:30N 39°52' W 075°13'2 4.6
2018-Feb-13 07:59N 39°51' W 075°15'1 2.6
2018-Feb-13 07:30N 39°52' W 075°14'2 3.6
2018-Feb-13 07:01N 39°51' W 075°16'0 0.0
2018-Feb-13 06:31N 39°51' W 075°16'0 0.0
2018-Feb-13 06:00N 39°51' W 075°16'0 0.0
2018-Feb-13 05:29N 39°51' W 075°16'0 0.0
2018-Feb-13 05:01N 39°51' W 075°16'0 0.0
2018-Feb-13 04:30N 39°51' W 075°16'0 0.0
2018-Feb-13 03:58N 39°51' W 075°16'0 0.0
2018-Feb-13 03:30N 39°51' W 075°16'0 0.7
2018-Feb-13 03:00N 39°51' W 075°16'0 0.1
2018-Feb-13 02:30N 39°51' W 075°16'0 0.0
2018-Feb-13 02:00N 39°51' W 075°16'3 5.1
2018-Feb-13 01:30N 39°52' W 075°13'2 4.0
2018-Feb-13 01:00N 39°53' W 075°11'0 0.0
2018-Feb-13 00:31N 39°53' W 075°11'0 0.0
2018-Feb-13 00:01N 39°53' W 075°11'0 0.0
2018-Feb-12 23:31N 39°53' W 075°11'0 0.0
2018-Feb-12 23:00N 39°53' W 075°11'0 0.0
2018-Feb-12 22:31N 39°53' W 075°11'0 0.0
2018-Feb-12 22:00N 39°53' W 075°11'0 0.0
2018-Feb-12 21:30N 39°53' W 075°11'0 0.0
2018-Feb-12 21:00N 39°53' W 075°11'0 0.0
2018-Feb-12 20:31N 39°53' W 075°11'0 0.0
2018-Feb-12 20:01N 39°53' W 075°11'0 0.0
2018-Feb-12 19:30N 39°53' W 075°11'0 0.0
2018-Feb-12 19:00N 39°53' W 075°11'0 0.0
2018-Feb-12 18:30N 39°53' W 075°11'0 0.0
2018-Feb-12 18:00N 39°53' W 075°11'0 0.0
2018-Feb-12 17:30N 39°53' W 075°11'0 0.0
2018-Feb-12 17:01N 39°53' W 075°11'0 0.0
2018-Feb-12 16:30N 39°53' W 075°11'0 0.0
2018-Feb-12 16:01N 39°53' W 075°11'0 0.0
2018-Feb-12 15:30N 39°53' W 075°11'0 0.0
2018-Feb-12 15:00N 39°53' W 075°11'0 0.0
2018-Feb-12 14:30N 39°53' W 075°11'0 0.0
2018-Feb-12 14:01N 39°53' W 075°11'0 0.0
2018-Feb-12 13:30N 39°53' W 075°11'0 0.0
2018-Feb-12 13:00N 39°53' W 075°11'0 0.0
2018-Feb-12 12:30N 39°53' W 075°11'0 0.0
2018-Feb-12 12:01N 39°53' W 075°11'0 0.0
2018-Feb-12 11:30N 39°53' W 075°11'0 0.0
2018-Feb-12 11:01N 39°53' W 075°11'0 0.0
2018-Feb-12 10:30N 39°53' W 075°11'0 0.0
2018-Feb-12 10:01N 39°53' W 075°11'0 0.0
2018-Feb-12 09:31N 39°53' W 075°11'2 3.4
2018-Feb-12 09:00N 39°52' W 075°13'0 0.3
2018-Feb-12 08:30N 39°52' W 075°13'0 0.0
2018-Feb-12 08:00N 39°52' W 075°13'1 2.9
2018-Feb-12 07:30N 39°51' W 075°15'1 1.9
2018-Feb-12 07:00N 39°51' W 075°16'0 0.0
2018-Feb-12 06:31N 39°51' W 075°16'0 0.6
2018-Feb-12 06:00N 39°51' W 075°16'0 0.0
2018-Feb-12 05:31N 39°51' W 075°16'0 0.0
2018-Feb-12 05:00N 39°51' W 075°16'1 2.2
2018-Feb-12 04:30N 39°51' W 075°18'0 0.3
2018-Feb-12 04:01N 39°51' W 075°18'3 6.1
2018-Feb-12 03:30N 39°52' W 075°14'3 5.1
2018-Feb-12 03:00N 39°53' W 075°11'0 0.0
2018-Feb-12 02:30N 39°53' W 075°11'0 0.0
2018-Feb-12 02:00N 39°53' W 075°11'0 0.0
2018-Feb-12 01:30N 39°53' W 075°11'0 0.0
2018-Feb-12 01:00N 39°53' W 075°11'0 0.0
2018-Feb-12 00:30N 39°53' W 075°11'0 0.0
2018-Feb-12 00:00N 39°53' W 075°11'0 0.0
2018-Feb-11 23:31N 39°53' W 075°11'0 0.0
2018-Feb-11 22:59N 39°53' W 075°11'0 0.0
2018-Feb-11 22:31N 39°53' W 075°11'0 0.0
2018-Feb-11 22:00N 39°53' W 075°11'0 0.0
2018-Feb-11 21:30N 39°53' W 075°11'0 0.0
2018-Feb-11 21:01N 39°53' W 075°11'0 0.0
2018-Feb-11 20:30N 39°53' W 075°11'0 0.0
2018-Feb-11 20:00N 39°53' W 075°11'0 0.0
2018-Feb-11 19:31N 39°53' W 075°11'0 0.0
2018-Feb-11 19:01N 39°53' W 075°11'0 0.0
2018-Feb-11 18:31N 39°53' W 075°11'0 0.0
2018-Feb-11 18:01N 39°53' W 075°11'0 0.0
2018-Feb-11 17:30N 39°53' W 075°11'0 0.0
2018-Feb-11 17:00N 39°53' W 075°11'0 0.0
2018-Feb-11 16:30N 39°53' W 075°11'0 0.0
2018-Feb-11 16:01N 39°53' W 075°11'0 0.0
2018-Feb-11 15:30N 39°53' W 075°11'0 0.0
2018-Feb-11 15:00N 39°53' W 075°11'0 0.0
2018-Feb-11 14:31N 39°53' W 075°11'0 0.0
2018-Feb-11 14:00N 39°53' W 075°11'0 0.0
2018-Feb-11 13:31N 39°53' W 075°11'0 0.0
2018-Feb-11 13:00N 39°53' W 075°11'0 0.0
2018-Feb-11 12:30N 39°53' W 075°11'0 0.0
2018-Feb-11 12:00N 39°53' W 075°11'0 0.0
2018-Feb-11 11:30N 39°53' W 075°11'0 0.0
2018-Feb-11 11:00N 39°53' W 075°11'0 0.0
2018-Feb-11 10:31N 39°53' W 075°11'0 0.0
2018-Feb-11 10:01N 39°53' W 075°11'0 0.0
2018-Feb-11 09:30N 39°53' W 075°11'0 0.0
2018-Feb-11 09:01N 39°53' W 075°11'0 0.0
2018-Feb-11 08:30N 39°53' W 075°11'0 0.0
2018-Feb-11 08:01N 39°53' W 075°11'0 0.0
2018-Feb-11 07:30N 39°53' W 075°11'0 0.0
2018-Feb-11 07:01N 39°53' W 075°11'0 0.0
2018-Feb-11 06:30N 39°53' W 075°11'0 0.0
2018-Feb-11 06:01N 39°53' W 075°11'0 0.0
2018-Feb-11 05:31N 39°53' W 075°11'0 0.0
2018-Feb-11 05:00N 39°53' W 075°11'0 0.0
2018-Feb-11 04:30N 39°53' W 075°11'0 0.0
2018-Feb-11 04:00N 39°53' W 075°11'0 0.0
2018-Feb-11 03:30N 39°53' W 075°11'2 3.9
2018-Feb-11 03:01N 39°52' W 075°13'0 0.0
2018-Feb-11 02:31N 39°52' W 075°13'0 0.0
2018-Feb-11 02:01N 39°52' W 075°13'0 0.0
2018-Feb-11 01:30N 39°52' W 075°13'0 0.4
2018-Feb-11 01:00N 39°52' W 075°13'1 2.7
2018-Feb-11 00:30N 39°51' W 075°15'1 1.7
2018-Feb-11 00:01N 39°52' W 075°14'3 5.1
2018-Feb-10 23:31N 39°53' W 075°11'0 0.1
2018-Feb-10 23:00N 39°53' W 075°11'0 0.0
2018-Feb-10 22:30N 39°53' W 075°11'0 0.0
2018-Feb-10 22:00N 39°53' W 075°11'0 0.0
2018-Feb-10 21:30N 39°53' W 075°11'0 0.0
2018-Feb-10 21:00N 39°53' W 075°11'0 0.0
2018-Feb-10 20:30N 39°53' W 075°11'0 0.0
2018-Feb-10 20:00N 39°53' W 075°11'0 0.0
2018-Feb-10 19:30N 39°53' W 075°11'0 0.0
2018-Feb-10 19:00N 39°53' W 075°11'0 0.0
2018-Feb-10 18:30N 39°53' W 075°11'0 0.0
2018-Feb-10 18:01N 39°53' W 075°11'0 0.0
2018-Feb-10 17:31N 39°53' W 075°11'0 0.0
2018-Feb-10 17:00N 39°53' W 075°11'0 0.0
2018-Feb-10 16:30N 39°53' W 075°11'0 0.0
2018-Feb-10 16:01N 39°53' W 075°11'0 0.0
2018-Feb-10 15:31N 39°53' W 075°11'0 0.0
2018-Feb-10 15:00N 39°53' W 075°11'0 0.0
2018-Feb-10 14:30N 39°53' W 075°11'0 0.0
2018-Feb-10 14:00N 39°53' W 075°11'0 0.0
2018-Feb-10 13:30N 39°53' W 075°11'0 0.0
2018-Feb-10 13:00N 39°53' W 075°11'0 0.0
2018-Feb-10 12:30N 39°53' W 075°11'0 0.0
2018-Feb-10 12:00N 39°53' W 075°11'0 0.0
2018-Feb-10 11:30N 39°53' W 075°11'0 0.0
2018-Feb-10 11:00N 39°53' W 075°11'0 0.0
2018-Feb-10 10:30N 39°53' W 075°11'0 0.0
2018-Feb-10 10:01N 39°53' W 075°11'0 0.0
2018-Feb-10 09:30N 39°53' W 075°11'0 0.0
2018-Feb-10 09:00N 39°53' W 075°11'0 0.0
2018-Feb-10 08:30N 39°53' W 075°11'0 0.0
2018-Feb-10 08:00N 39°53' W 075°11'0 0.0
2018-Feb-10 07:30N 39°53' W 075°11'0 0.0
2018-Feb-10 07:00N 39°53' W 075°11'0 0.0
2018-Feb-10 06:28N 39°53' W 075°11'0 0.0
2018-Feb-10 06:00N 39°53' W 075°11'0 0.0
2018-Feb-10 05:30N 39°53' W 075°11'0 0.0
2018-Feb-10 05:00N 39°53' W 075°11'0 0.0
2018-Feb-10 04:31N 39°53' W 075°11'0 0.0
2018-Feb-10 04:00N 39°53' W 075°11'0 0.0
2018-Feb-10 03:30N 39°53' W 075°11'0 0.0
2018-Feb-10 03:00N 39°53' W 075°11'0 0.0
2018-Feb-10 02:29N 39°53' W 075°11'0 0.0
2018-Feb-10 02:00N 39°53' W 075°11'0 0.0
2018-Feb-10 01:30N 39°53' W 075°11'0 0.0
2018-Feb-10 01:00N 39°53' W 075°11'0 0.0
2018-Feb-10 00:30N 39°53' W 075°11'0 0.0
2018-Feb-10 00:00N 39°53' W 075°11'0 0.0
2018-Feb-09 23:29N 39°53' W 075°11'0 0.0
2018-Feb-09 23:00N 39°53' W 075°11'0 0.0
2018-Feb-09 22:46N 39°53' W 075°11'0 0.0
2018-Feb-09 22:00N 39°53' W 075°11'0 0.0
2018-Feb-09 21:30N 39°53' W 075°11'0 0.0
2018-Feb-09 20:30N 39°53' W 075°11'0 0.0
2018-Feb-09 20:01N 39°53' W 075°11'0 0.0
2018-Feb-09 19:31N 39°53' W 075°11'0 0.0
2018-Feb-09 18:31N 39°53' W 075°11'0 0.0
2018-Feb-09 18:00N 39°53' W 075°11'0 0.0
2018-Feb-09 17:30N 39°53' W 075°11'0 0.0
2018-Feb-09 17:00N 39°53' W 075°11'10 6.7
2018-Feb-09 15:31N 39°49' W 075°23'1 2.3
2018-Feb-09 15:00N 39°49' W 075°24'0 0.0
2018-Feb-09 14:30N 39°49' W 075°24'0 0.0
2018-Feb-09 14:01N 39°49' W 075°24'0 0.0
2018-Feb-09 13:30N 39°49' W 075°24'0 0.0
2018-Feb-09 12:31N 39°49' W 075°24'0 0.0
2018-Feb-09 12:01N 39°49' W 075°24'0 0.0
2018-Feb-09 11:30N 39°49' W 075°24'0 0.5
2018-Feb-09 11:00N 39°48' W 075°24'1 1.7
2018-Feb-09 10:31N 39°48' W 075°25'1 1.1
2018-Feb-09 09:30N 39°49' W 075°24'0 0.0
2018-Feb-09 08:31N 39°49' W 075°24'0 0.0
2018-Feb-09 07:30N 39°49' W 075°24'0 0.0
2018-Feb-09 07:00N 39°49' W 075°24'0 0.0
2018-Feb-09 06:30N 39°49' W 075°24'0 0.0
2018-Feb-09 06:00N 39°49' W 075°24'0 0.2
2018-Feb-09 05:00N 39°49' W 075°24'4 1.8
2018-Feb-09 03:00N 39°51' W 075°20'0 0.0
2018-Feb-09 02:30N 39°51' W 075°20'2 4.6
2018-Feb-09 02:00N 39°51' W 075°17'4 3.6
2018-Feb-09 01:00N 39°52' W 075°13'2 0.9
2018-Feb-08 23:00N 39°53' W 075°11'0 0.0
2018-Feb-08 22:00N 39°53' W 075°11'0 0.0
2018-Feb-08 20:30N 39°53' W 075°11'0 0.0
2018-Feb-08 18:30N 39°53' W 075°11'  
Track history (hours):
 
Tides and Currents Weather Stations Pressure Air Temp Water Temp Dewpoint Dewpoint Depression Visibility Wind Speed Wind Dir Waves Ship Positions

Madeline

Owner: TUG MADELINE, LLC, NEW CASTLE, DE. More information available from US FCC via Universal Licensing System and Coast Guard Vessel Documentation Center.

Last reported at 2018-Feb-18 18:30 UTC. Time now 2018-Feb-18 18:39 UTC.
Position N 39°43' W 075°31'.

Length 23 m; draft 4.6 m.

Type: Tug. MMSI: 367335830.

Date/timePositionNaut miles runAvg speedWind from/ knotsBaromVisibWave heightAir tempDewpointWater temp
2018-Feb-18 18:30N 39°43' W 075°31'0 0.0
2018-Feb-18 18:00N 39°43' W 075°31'0 0.0
2018-Feb-18 17:30N 39°43' W 075°31'0 0.0
2018-Feb-18 17:00N 39°43' W 075°31'0 0.0
2018-Feb-18 16:30N 39°43' W 075°31'0 0.0
2018-Feb-18 16:00N 39°43' W 075°31'0 0.0
2018-Feb-18 15:30N 39°43' W 075°31'0 0.0
2018-Feb-18 15:00N 39°43' W 075°31'0 0.0
2018-Feb-18 14:31N 39°43' W 075°31'0 0.0
2018-Feb-18 14:00N 39°43' W 075°31'0 0.0
2018-Feb-18 13:30N 39°43' W 075°31'0 0.0
2018-Feb-18 13:00N 39°43' W 075°31'0 0.0
2018-Feb-18 12:30N 39°43' W 075°31'0 0.0
2018-Feb-18 12:00N 39°43' W 075°31'0 0.0
2018-Feb-18 11:30N 39°43' W 075°31'0 0.0
2018-Feb-18 11:00N 39°43' W 075°31'0 0.0
2018-Feb-18 10:30N 39°43' W 075°31'0 0.0
2018-Feb-18 10:00N 39°43' W 075°31'0 0.0
2018-Feb-18 09:30N 39°43' W 075°31'0 0.0
2018-Feb-18 09:00N 39°43' W 075°31'0 0.0
2018-Feb-18 08:30N 39°43' W 075°31'0 0.0
2018-Feb-18 08:00N 39°43' W 075°31'0 0.0
2018-Feb-18 07:30N 39°43' W 075°31'0 0.4
2018-Feb-18 07:00N 39°43' W 075°31'611.2
2018-Feb-18 06:31N 39°38' W 075°35'3 6.6
2018-Feb-18 06:00N 39°35' W 075°35'0 0.1
2018-Feb-18 05:30N 39°35' W 075°35'0 0.2
2018-Feb-18 05:00N 39°35' W 075°35'0 0.0
2018-Feb-18 04:30N 39°35' W 075°35'0 0.0
2018-Feb-18 04:00N 39°35' W 075°35'0 0.0
2018-Feb-18 03:30N 39°35' W 075°35'0 0.0
2018-Feb-18 03:00N 39°35' W 075°35'0 0.0
2018-Feb-18 02:30N 39°35' W 075°35'0 0.0
2018-Feb-18 02:00N 39°35' W 075°35'3 5.8
2018-Feb-18 01:30N 39°33' W 075°33'510.9
2018-Feb-18 01:00N 39°27' W 075°33'611.2
2018-Feb-18 00:31N 39°23' W 075°29'611.1
2018-Feb-18 00:00N 39°19' W 075°24'1010.4
2018-Feb-17 23:00N 39°11' W 075°16'611.4
2018-Feb-17 22:30N 39°06' W 075°12'11 0.4
2018-Feb-16 18:54N 39°15' W 075°19'513.3
2018-Feb-16 18:30N 39°19' W 075°24'612.6
2018-Feb-16 18:00N 39°24' W 075°29'611.2
2018-Feb-16 17:30N 39°28' W 075°34'510.4
2018-Feb-16 17:00N 39°33' W 075°33'5 9.6
2018-Feb-16 16:31N 39°38' W 075°34'510.1
2018-Feb-16 16:00N 39°42' W 075°31'1 1.8
2018-Feb-16 15:30N 39°43' W 075°31'0 0.0
2018-Feb-16 15:00N 39°43' W 075°31'0 0.0
2018-Feb-16 14:30N 39°43' W 075°31'0 0.0
2018-Feb-16 14:01N 39°43' W 075°31'0 0.0
2018-Feb-16 13:31N 39°43' W 075°31'0 0.0
2018-Feb-16 13:01N 39°43' W 075°31'0 0.0
2018-Feb-16 12:30N 39°43' W 075°31'0 0.0
2018-Feb-16 12:00N 39°43' W 075°31'0 0.0
2018-Feb-16 11:30N 39°43' W 075°31'0 0.0
2018-Feb-16 11:00N 39°43' W 075°31'0 0.0
2018-Feb-16 10:30N 39°43' W 075°31'0 0.0
2018-Feb-16 10:00N 39°43' W 075°31'0 0.0
2018-Feb-16 09:30N 39°43' W 075°31'0 0.0
2018-Feb-16 09:00N 39°43' W 075°31'0 0.0
2018-Feb-16 08:31N 39°43' W 075°31'510.2
2018-Feb-16 08:01N 39°47' W 075°27'3 5.6
2018-Feb-16 07:31N 39°49' W 075°24'4 7.2
2018-Feb-16 07:01N 39°51' W 075°21'0 0.2
2018-Feb-16 06:30N 39°51' W 075°20'0 0.3
2018-Feb-16 06:01N 39°51' W 075°20'2 3.8
2018-Feb-16 05:31N 39°50' W 075°22'2 3.2
2018-Feb-16 05:01N 39°51' W 075°21'1 2.2
2018-Feb-16 04:31N 39°51' W 075°19'4 8.7
2018-Feb-16 04:01N 39°52' W 075°14'2 4.9
2018-Feb-16 03:30N 39°53' W 075°11'0 0.0
2018-Feb-16 03:00N 39°53' W 075°11'0 0.0
2018-Feb-16 02:31N 39°53' W 075°11'0 0.0
2018-Feb-16 02:01N 39°53' W 075°11'0 0.0
2018-Feb-16 01:31N 39°53' W 075°11'0 0.0
2018-Feb-15 23:06N 39°53' W 075°11'0 0.1
2018-Feb-15 23:00N 39°53' W 075°11'0 0.0
2018-Feb-15 22:30N 39°53' W 075°11'0 0.0
2018-Feb-15 22:00N 39°53' W 075°11'0 0.0
2018-Feb-15 21:30N 39°53' W 075°11'0 0.0
2018-Feb-15 21:01N 39°53' W 075°11'0 0.0
2018-Feb-15 20:31N 39°53' W 075°11'0 0.0
2018-Feb-15 20:01N 39°53' W 075°11'0 0.0
2018-Feb-15 19:30N 39°53' W 075°11'0 0.0
2018-Feb-15 19:01N 39°53' W 075°11'0 0.0
2018-Feb-15 18:30N 39°53' W 075°11'0 0.0
2018-Feb-15 18:01N 39°53' W 075°11'0 0.0
2018-Feb-15 17:31N 39°53' W 075°11'0 0.0
2018-Feb-15 17:00N 39°53' W 075°11'0 0.0
2018-Feb-15 16:30N 39°53' W 075°11'0 0.0
2018-Feb-15 16:00N 39°53' W 075°11'0 0.0
2018-Feb-15 15:30N 39°53' W 075°11'0 0.0
2018-Feb-15 15:00N 39°53' W 075°11'0 0.0
2018-Feb-15 14:30N 39°53' W 075°11'0 0.0
2018-Feb-15 14:01N 39°53' W 075°11'0 0.0
2018-Feb-15 13:30N 39°53' W 075°11'0 0.0
2018-Feb-15 13:00N 39°53' W 075°11'0 0.0
2018-Feb-15 12:30N 39°53' W 075°11'0 0.0
2018-Feb-15 12:00N 39°53' W 075°11'0 0.0
2018-Feb-15 11:30N 39°53' W 075°11'0 0.0
2018-Feb-15 11:00N 39°53' W 075°11'3 6.8
2018-Feb-15 10:30N 39°56' W 075°08'510.1
2018-Feb-15 10:00N 39°60' W 075°04'613.1
2018-Feb-15 09:31N 40°04' W 074°57'612.4
2018-Feb-15 09:00N 40°07' W 074°50'1 2.6
2018-Feb-15 08:30N 40°08' W 074°49'0 0.0
2018-Feb-15 08:00N 40°08' W 074°49'1 1.2
2018-Feb-15 07:28N 40°07' W 074°50'3 6.5
2018-Feb-15 07:00N 40°05' W 074°52'4 8.6
2018-Feb-15 06:30N 40°03' W 074°57'4 8.6
2018-Feb-15 06:01N 40°01' W 075°02'4 7.1
2018-Feb-15 05:30N 39°59' W 075°05'3 6.6
2018-Feb-15 05:00N 39°56' W 075°08'3 6.2
2018-Feb-15 04:30N 39°53' W 075°09'2 3.6
2018-Feb-15 04:00N 39°53' W 075°11'0 0.0
2018-Feb-15 03:31N 39°53' W 075°11'0 0.0
2018-Feb-15 03:00N 39°53' W 075°11'0 0.0
2018-Feb-15 02:30N 39°53' W 075°11'3 6.5
2018-Feb-15 02:00N 39°51' W 075°15'1 2.6
2018-Feb-15 01:31N 39°51' W 075°16'0 0.7
2018-Feb-15 01:01N 39°51' W 075°16'0 0.0
2018-Feb-15 00:29N 39°51' W 075°16'0 0.0
2018-Feb-15 00:01N 39°51' W 075°16'0 0.0
2018-Feb-14 23:30N 39°51' W 075°16'0 0.0
2018-Feb-14 23:00N 39°51' W 075°16'0 0.0
2018-Feb-14 22:30N 39°51' W 075°16'0 0.0
2018-Feb-14 22:00N 39°51' W 075°16'0 0.0
2018-Feb-14 21:30N 39°51' W 075°16'0 0.0
2018-Feb-14 21:01N 39°51' W 075°16'0 0.0
2018-Feb-14 20:30N 39°51' W 075°16'0 0.0
2018-Feb-14 20:00N 39°51' W 075°16'0 0.9
2018-Feb-14 19:30N 39°51' W 075°15'4 7.8
2018-Feb-14 19:00N 39°51' W 075°20'4 8.3
2018-Feb-14 18:30N 39°48' W 075°25'1 2.0
2018-Feb-14 18:00N 39°48' W 075°26'0 0.1
2018-Feb-14 17:30N 39°48' W 075°26'1 3.0
2018-Feb-14 17:01N 39°49' W 075°24'0 0.5
2018-Feb-14 16:30N 39°49' W 075°24'3 6.7
2018-Feb-14 16:01N 39°51' W 075°20'4 8.2
2018-Feb-14 15:31N 39°51' W 075°15'4 7.2
2018-Feb-14 15:01N 39°53' W 075°11'0 0.1
2018-Feb-14 14:30N 39°53' W 075°11'0 0.0
2018-Feb-14 14:01N 39°53' W 075°11'0 0.0
2018-Feb-14 13:31N 39°53' W 075°11'0 0.0
2018-Feb-14 13:01N 39°53' W 075°11'0 0.0
2018-Feb-14 12:30N 39°53' W 075°11'0 0.0
2018-Feb-14 12:01N 39°53' W 075°11'0 0.0
2018-Feb-14 11:30N 39°53' W 075°11'0 0.0
2018-Feb-14 11:01N 39°53' W 075°11'0 0.0
2018-Feb-14 10:31N 39°53' W 075°11'0 0.0
2018-Feb-14 10:01N 39°53' W 075°11'0 0.0
2018-Feb-14 09:31N 39°53' W 075°11'0 0.0
2018-Feb-14 09:01N 39°53' W 075°11'0 0.0
2018-Feb-14 08:31N 39°53' W 075°11'0 0.0
2018-Feb-14 07:59N 39°53' W 075°11'0 0.0
2018-Feb-14 07:30N 39°53' W 075°11'0 0.0
2018-Feb-14 07:00N 39°53' W 075°11'0 0.0
2018-Feb-14 06:30N 39°53' W 075°11'0 0.0
2018-Feb-14 06:00N 39°53' W 075°11'0 0.0
2018-Feb-14 05:30N 39°53' W 075°11'0 0.0
2018-Feb-14 05:00N 39°53' W 075°11'0 0.0
2018-Feb-14 04:30N 39°53' W 075°11'0 0.0
2018-Feb-14 04:00N 39°53' W 075°11'0 0.0
2018-Feb-14 03:30N 39°53' W 075°11'0 0.0
2018-Feb-14 03:00N 39°53' W 075°11'0 0.0
2018-Feb-14 02:30N 39°53' W 075°11'0 0.0
2018-Feb-14 02:00N 39°53' W 075°11'0 0.0
2018-Feb-14 01:30N 39°53' W 075°11'0 0.0
2018-Feb-14 01:00N 39°53' W 075°11'0 0.0
2018-Feb-14 00:30N 39°53' W 075°11'0 0.0
2018-Feb-14 00:00N 39°53' W 075°11'0 0.0
2018-Feb-13 23:30N 39°53' W 075°11'0 0.0
2018-Feb-13 23:00N 39°53' W 075°11'0 0.0
2018-Feb-13 22:30N 39°53' W 075°11'0 0.0
2018-Feb-13 22:00N 39°53' W 075°11'0 0.0
2018-Feb-13 21:30N 39°53' W 075°11'0 0.0
2018-Feb-13 21:00N 39°53' W 075°11'0 0.0
2018-Feb-13 20:30N 39°53' W 075°11'0 0.0
2018-Feb-13 20:00N 39°53' W 075°11'0 0.0
2018-Feb-13 19:30N 39°53' W 075°11'0 0.0
2018-Feb-13 19:00N 39°53' W 075°11'0 0.0
2018-Feb-13 18:31N 39°53' W 075°11'0 0.0
2018-Feb-13 18:00N 39°53' W 075°11'0 0.0
2018-Feb-13 17:31N 39°53' W 075°11'0 0.0
2018-Feb-13 17:00N 39°53' W 075°11'0 0.0
2018-Feb-13 16:30N 39°53' W 075°11'0 0.0
2018-Feb-13 16:01N 39°53' W 075°11'0 0.0
2018-Feb-13 15:31N 39°53' W 075°11'0 0.0
2018-Feb-13 15:01N 39°53' W 075°11'0 0.0
2018-Feb-13 14:31N 39°53' W 075°11'0 0.0
2018-Feb-13 14:01N 39°53' W 075°11'0 0.0
2018-Feb-13 13:31N 39°53' W 075°11'0 0.0
2018-Feb-13 13:00N 39°53' W 075°11'0 0.0
2018-Feb-13 12:30N 39°53' W 075°11'0 0.0
2018-Feb-13 12:01N 39°53' W 075°11'0 0.0
2018-Feb-13 11:30N 39°53' W 075°11'0 0.0
2018-Feb-13 11:00N 39°53' W 075°11'0 0.0
2018-Feb-13 10:30N 39°53' W 075°11'0 0.0
2018-Feb-13 10:00N 39°53' W 075°11'0 0.0
2018-Feb-13 09:30N 39°53' W 075°11'0 0.0
2018-Feb-13 09:00N 39°53' W 075°11'1 2.7
2018-Feb-13 08:30N 39°52' W 075°13'2 4.6
2018-Feb-13 07:59N 39°51' W 075°15'1 2.6
2018-Feb-13 07:30N 39°52' W 075°14'2 3.6
2018-Feb-13 07:01N 39°51' W 075°16'0 0.0
2018-Feb-13 06:31N 39°51' W 075°16'0 0.0
2018-Feb-13 06:00N 39°51' W 075°16'0 0.0
2018-Feb-13 05:29N 39°51' W 075°16'0 0.0
2018-Feb-13 05:01N 39°51' W 075°16'0 0.0
2018-Feb-13 04:30N 39°51' W 075°16'0 0.0
2018-Feb-13 03:58N 39°51' W 075°16'0 0.0
2018-Feb-13 03:30N 39°51' W 075°16'0 0.7
2018-Feb-13 03:00N 39°51' W 075°16'0 0.1
2018-Feb-13 02:30N 39°51' W 075°16'0 0.0
2018-Feb-13 02:00N 39°51' W 075°16'3 5.1
2018-Feb-13 01:30N 39°52' W 075°13'2 4.0
2018-Feb-13 01:00N 39°53' W 075°11'0 0.0
2018-Feb-13 00:31N 39°53' W 075°11'0 0.0
2018-Feb-13 00:01N 39°53' W 075°11'0 0.0
2018-Feb-12 23:31N 39°53' W 075°11'0 0.0
2018-Feb-12 23:00N 39°53' W 075°11'0 0.0
2018-Feb-12 22:31N 39°53' W 075°11'0 0.0
2018-Feb-12 22:00N 39°53' W 075°11'0 0.0
2018-Feb-12 21:30N 39°53' W 075°11'0 0.0
2018-Feb-12 21:00N 39°53' W 075°11'0 0.0
2018-Feb-12 20:31N 39°53' W 075°11'0 0.0
2018-Feb-12 20:01N 39°53' W 075°11'0 0.0
2018-Feb-12 19:30N 39°53' W 075°11'0 0.0
2018-Feb-12 19:00N 39°53' W 075°11'0 0.0
2018-Feb-12 18:30N 39°53' W 075°11'0 0.0
2018-Feb-12 18:00N 39°53' W 075°11'0 0.0
2018-Feb-12 17:30N 39°53' W 075°11'0 0.0
2018-Feb-12 17:01N 39°53' W 075°11'0 0.0
2018-Feb-12 16:30N 39°53' W 075°11'0 0.0
2018-Feb-12 16:01N 39°53' W 075°11'0 0.0
2018-Feb-12 15:30N 39°53' W 075°11'0 0.0
2018-Feb-12 15:00N 39°53' W 075°11'0 0.0
2018-Feb-12 14:30N 39°53' W 075°11'0 0.0
2018-Feb-12 14:01N 39°53' W 075°11'0 0.0
2018-Feb-12 13:30N 39°53' W 075°11'0 0.0
2018-Feb-12 13:00N 39°53' W 075°11'0 0.0
2018-Feb-12 12:30N 39°53' W 075°11'0 0.0
2018-Feb-12 12:01N 39°53' W 075°11'0 0.0
2018-Feb-12 11:30N 39°53' W 075°11'0 0.0
2018-Feb-12 11:01N 39°53' W 075°11'0 0.0
2018-Feb-12 10:30N 39°53' W 075°11'0 0.0
2018-Feb-12 10:01N 39°53' W 075°11'0 0.0
2018-Feb-12 09:31N 39°53' W 075°11'2 3.4
2018-Feb-12 09:00N 39°52' W 075°13'0 0.3
2018-Feb-12 08:30N 39°52' W 075°13'0 0.0
2018-Feb-12 08:00N 39°52' W 075°13'1 2.9
2018-Feb-12 07:30N 39°51' W 075°15'1 1.9
2018-Feb-12 07:00N 39°51' W 075°16'0 0.0
2018-Feb-12 06:31N 39°51' W 075°16'0 0.6
2018-Feb-12 06:00N 39°51' W 075°16'0 0.0
2018-Feb-12 05:31N 39°51' W 075°16'0 0.0
2018-Feb-12 05:00N 39°51' W 075°16'1 2.2
2018-Feb-12 04:30N 39°51' W 075°18'0 0.3
2018-Feb-12 04:01N 39°51' W 075°18'3 6.1
2018-Feb-12 03:30N 39°52' W 075°14'3 5.1
2018-Feb-12 03:00N 39°53' W 075°11'0 0.0
2018-Feb-12 02:30N 39°53' W 075°11'0 0.0
2018-Feb-12 02:00N 39°53' W 075°11'0 0.0
2018-Feb-12 01:30N 39°53' W 075°11'0 0.0
2018-Feb-12 01:00N 39°53' W 075°11'0 0.0
2018-Feb-12 00:30N 39°53' W 075°11'0 0.0
2018-Feb-12 00:00N 39°53' W 075°11'0 0.0
2018-Feb-11 23:31N 39°53' W 075°11'0 0.0
2018-Feb-11 22:59N 39°53' W 075°11'0 0.0
2018-Feb-11 22:31N 39°53' W 075°11'0 0.0
2018-Feb-11 22:00N 39°53' W 075°11'0 0.0
2018-Feb-11 21:30N 39°53' W 075°11'0 0.0
2018-Feb-11 21:01N 39°53' W 075°11'0 0.0
2018-Feb-11 20:30N 39°53' W 075°11'0 0.0
2018-Feb-11 20:00N 39°53' W 075°11'0 0.0
2018-Feb-11 19:31N 39°53' W 075°11'0 0.0
2018-Feb-11 19:01N 39°53' W 075°11'0 0.0
2018-Feb-11 18:31N 39°53' W 075°11'0 0.0
2018-Feb-11 18:01N 39°53' W 075°11'0 0.0
2018-Feb-11 17:30N 39°53' W 075°11'0 0.0
2018-Feb-11 17:00N 39°53' W 075°11'0 0.0
2018-Feb-11 16:30N 39°53' W 075°11'0 0.0
2018-Feb-11 16:01N 39°53' W 075°11'0 0.0
2018-Feb-11 15:30N 39°53' W 075°11'0 0.0
2018-Feb-11 15:00N 39°53' W 075°11'0 0.0
2018-Feb-11 14:31N 39°53' W 075°11'0 0.0
2018-Feb-11 14:00N 39°53' W 075°11'0 0.0
2018-Feb-11 13:31N 39°53' W 075°11'0 0.0
2018-Feb-11 13:00N 39°53' W 075°11'0 0.0
2018-Feb-11 12:30N 39°53' W 075°11'0 0.0
2018-Feb-11 12:00N 39°53' W 075°11'0 0.0
2018-Feb-11 11:30N 39°53' W 075°11'0 0.0
2018-Feb-11 11:00N 39°53' W 075°11'0 0.0
2018-Feb-11 10:31N 39°53' W 075°11'0 0.0
2018-Feb-11 10:01N 39°53' W 075°11'0 0.0
2018-Feb-11 09:30N 39°53' W 075°11'0 0.0
2018-Feb-11 09:01N 39°53' W 075°11'0 0.0
2018-Feb-11 08:30N 39°53' W 075°11'0 0.0
2018-Feb-11 08:01N 39°53' W 075°11'0 0.0
2018-Feb-11 07:30N 39°53' W 075°11'0 0.0
2018-Feb-11 07:01N 39°53' W 075°11'0 0.0
2018-Feb-11 06:30N 39°53' W 075°11'0 0.0
2018-Feb-11 06:01N 39°53' W 075°11'0 0.0
2018-Feb-11 05:31N 39°53' W 075°11'0 0.0
2018-Feb-11 05:00N 39°53' W 075°11'0 0.0
2018-Feb-11 04:30N 39°53' W 075°11'0 0.0
2018-Feb-11 04:00N 39°53' W 075°11'0 0.0
2018-Feb-11 03:30N 39°53' W 075°11'2 3.9
2018-Feb-11 03:01N 39°52' W 075°13'0 0.0
2018-Feb-11 02:31N 39°52' W 075°13'0 0.0
2018-Feb-11 02:01N 39°52' W 075°13'0 0.0
2018-Feb-11 01:30N 39°52' W 075°13'0 0.4
2018-Feb-11 01:00N 39°52' W 075°13'1 2.7
2018-Feb-11 00:30N 39°51' W 075°15'1 1.7
2018-Feb-11 00:01N 39°52' W 075°14'3 5.1
2018-Feb-10 23:31N 39°53' W 075°11'0 0.1
2018-Feb-10 23:00N 39°53' W 075°11'0 0.0
2018-Feb-10 22:30N 39°53' W 075°11'0 0.0
2018-Feb-10 22:00N 39°53' W 075°11'0 0.0
2018-Feb-10 21:30N 39°53' W 075°11'0 0.0
2018-Feb-10 21:00N 39°53' W 075°11'0 0.0
2018-Feb-10 20:30N 39°53' W 075°11'0 0.0
2018-Feb-10 20:00N 39°53' W 075°11'0 0.0
2018-Feb-10 19:30N 39°53' W 075°11'0 0.0
2018-Feb-10 19:00N 39°53' W 075°11'0 0.0
2018-Feb-10 18:30N 39°53' W 075°11'0 0.0
2018-Feb-10 18:01N 39°53' W 075°11'0 0.0
2018-Feb-10 17:31N 39°53' W 075°11'0 0.0
2018-Feb-10 17:00N 39°53' W 075°11'0 0.0
2018-Feb-10 16:30N 39°53' W 075°11'0 0.0
2018-Feb-10 16:01N 39°53' W 075°11'0 0.0
2018-Feb-10 15:31N 39°53' W 075°11'0 0.0
2018-Feb-10 15:00N 39°53' W 075°11'0 0.0
2018-Feb-10 14:30N 39°53' W 075°11'0 0.0
2018-Feb-10 14:00N 39°53' W 075°11'0 0.0
2018-Feb-10 13:30N 39°53' W 075°11'0 0.0
2018-Feb-10 13:00N 39°53' W 075°11'0 0.0
2018-Feb-10 12:30N 39°53' W 075°11'0 0.0
2018-Feb-10 12:00N 39°53' W 075°11'0 0.0
2018-Feb-10 11:30N 39°53' W 075°11'0 0.0
2018-Feb-10 11:00N 39°53' W 075°11'0 0.0
2018-Feb-10 10:30N 39°53' W 075°11'0 0.0
2018-Feb-10 10:01N 39°53' W 075°11'0 0.0
2018-Feb-10 09:30N 39°53' W 075°11'0 0.0
2018-Feb-10 09:00N 39°53' W 075°11'0 0.0
2018-Feb-10 08:30N 39°53' W 075°11'0 0.0
2018-Feb-10 08:00N 39°53' W 075°11'0 0.0
2018-Feb-10 07:30N 39°53' W 075°11'0 0.0
2018-Feb-10 07:00N 39°53' W 075°11'0 0.0
2018-Feb-10 06:28N 39°53' W 075°11'0 0.0
2018-Feb-10 06:00N 39°53' W 075°11'0 0.0
2018-Feb-10 05:30N 39°53' W 075°11'0 0.0
2018-Feb-10 05:00N 39°53' W 075°11'0 0.0
2018-Feb-10 04:31N 39°53' W 075°11'0 0.0
2018-Feb-10 04:00N 39°53' W 075°11'0 0.0
2018-Feb-10 03:30N 39°53' W 075°11'0 0.0
2018-Feb-10 03:00N 39°53' W 075°11'0 0.0
2018-Feb-10 02:29N 39°53' W 075°11'0 0.0
2018-Feb-10 02:00N 39°53' W 075°11'0 0.0
2018-Feb-10 01:30N 39°53' W 075°11'0 0.0
2018-Feb-10 01:00N 39°53' W 075°11'0 0.0
2018-Feb-10 00:30N 39°53' W 075°11'0 0.0
2018-Feb-10 00:00N 39°53' W 075°11'0 0.0
2018-Feb-09 23:29N 39°53' W 075°11'0 0.0
2018-Feb-09 23:00N 39°53' W 075°11'0 0.0
2018-Feb-09 22:46N 39°53' W 075°11'0 0.0
2018-Feb-09 22:00N 39°53' W 075°11'0 0.0
2018-Feb-09 21:30N 39°53' W 075°11'0 0.0
2018-Feb-09 20:30N 39°53' W 075°11'0 0.0
2018-Feb-09 20:01N 39°53' W 075°11'0 0.0
2018-Feb-09 19:31N 39°53' W 075°11'0 0.0
2018-Feb-09 18:31N 39°53' W 075°11'0 0.0
2018-Feb-09 18:00N 39°53' W 075°11'0 0.0
2018-Feb-09 17:30N 39°53' W 075°11'0 0.0
2018-Feb-09 17:00N 39°53' W 075°11'10 6.7
2018-Feb-09 15:31N 39°49' W 075°23'1 2.3
2018-Feb-09 15:00N 39°49' W 075°24'0 0.0
2018-Feb-09 14:30N 39°49' W 075°24'0 0.0
2018-Feb-09 14:01N 39°49' W 075°24'0 0.0
2018-Feb-09 13:30N 39°49' W 075°24'0 0.0
2018-Feb-09 12:31N 39°49' W 075°24'0 0.0
2018-Feb-09 12:01N 39°49' W 075°24'0 0.0
2018-Feb-09 11:30N 39°49' W 075°24'0 0.5
2018-Feb-09 11:00N 39°48' W 075°24'1 1.7
2018-Feb-09 10:31N 39°48' W 075°25'1 1.1
2018-Feb-09 09:30N 39°49' W 075°24'0 0.0
2018-Feb-09 08:31N 39°49' W 075°24'0 0.0
2018-Feb-09 07:30N 39°49' W 075°24'0 0.0
2018-Feb-09 07:00N 39°49' W 075°24'0 0.0
2018-Feb-09 06:30N 39°49' W 075°24'0 0.0
2018-Feb-09 06:00N 39°49' W 075°24'0 0.2
2018-Feb-09 05:00N 39°49' W 075°24'4 1.8
2018-Feb-09 03:00N 39°51' W 075°20'0 0.0
2018-Feb-09 02:30N 39°51' W 075°20'2 4.6
2018-Feb-09 02:00N 39°51' W 075°17'4 3.6
2018-Feb-09 01:00N 39°52' W 075°13'2 0.9
2018-Feb-08 23:00N 39°53' W 075°11'0 0.0
2018-Feb-08 22:00N 39°53' W 075°11'0 0.0
2018-Feb-08 20:30N 39°53' W 075°11'0 0.0
2018-Feb-08 18:30N 39°53' W 075°11'  

Dump ship's entire track history